createdAt,value
2023-05-21T00:02:59.287Z,16.00
2023-05-21T00:06:04.093Z,16.33
2023-05-21T00:09:12.951Z,15.67
2023-05-21T00:12:16.964Z,19.67
2023-05-21T00:15:21.171Z,18.75
2023-05-21T00:18:26.679Z,8.50
2023-05-21T00:21:31.857Z,17.75
2023-05-21T00:24:35.296Z,18.33
2023-05-21T00:27:39.035Z,19.00
2023-05-21T00:30:43.346Z,19.00
2023-05-21T00:33:48.507Z,19.33
2023-05-21T00:36:53.536Z,18.67
2023-05-21T00:39:58.412Z,17.25
2023-05-21T00:43:02.242Z,19.00
2023-05-21T00:46:07.104Z,13.00
2023-05-21T00:49:12.417Z,22.75
2023-05-21T00:52:20.404Z,19.25
2023-05-21T00:55:24.561Z,16.33
2023-05-21T00:58:28.607Z,22.75
2023-05-21T01:01:37.137Z,20.67
2023-05-21T01:04:42.567Z,21.33
2023-05-21T01:07:46.903Z,18.67
2023-05-21T01:10:51.130Z,20.25
2023-05-21T01:13:54.991Z,17.33
2023-05-21T01:16:59.772Z,22.67
2023-05-21T01:20:10.401Z,19.00
2023-05-21T01:23:16.015Z,23.25
2023-05-21T01:26:19.908Z,21.00
2023-05-21T01:29:24.475Z,25.00
2023-05-21T01:32:36.652Z,24.00
2023-05-21T01:35:46.529Z,23.00
2023-05-21T01:39:02.805Z,12.75
2023-05-21T01:42:10.548Z,19.75
2023-05-21T01:45:17.087Z,19.25
2023-05-21T01:48:21.140Z,23.75
2023-05-21T01:51:26.420Z,21.00
2023-05-21T01:54:31.341Z,26.50
2023-05-21T01:57:37.963Z,19.00
2023-05-21T02:00:42.351Z,22.50
2023-05-21T02:03:46.152Z,18.75
2023-05-21T02:06:50.080Z,21.00
2023-05-21T02:09:55.464Z,25.00
2023-05-21T02:12:59.456Z,19.75
2023-05-21T02:16:03.074Z,20.50
2023-05-21T02:19:06.986Z,17.50
2023-05-21T02:22:10.781Z,21.50
2023-05-21T02:25:18.522Z,23.75
2023-05-21T02:28:22.509Z,16.00
2023-05-21T02:31:26.460Z,18.25
2023-05-21T02:34:31.104Z,18.25
2023-05-21T02:37:35.161Z,21.25
2023-05-21T02:40:40.597Z,26.50
2023-05-21T02:43:44.879Z,20.50
2023-05-21T02:46:48.685Z,21.50
2023-05-21T02:49:54.711Z,21.25
2023-05-21T02:52:59.845Z,20.00
2023-05-21T02:56:06.053Z,12.25
2023-05-21T02:59:09.759Z,19.00
2023-05-21T03:02:13.725Z,21.00
2023-05-21T03:05:17.448Z,25.00
2023-05-21T03:08:21.608Z,18.50
2023-05-21T03:11:26.567Z,23.50
2023-05-21T03:14:30.351Z,21.25
2023-05-21T03:17:35.280Z,21.00
2023-05-21T03:20:43.836Z,19.50
2023-05-21T03:23:47.937Z,21.75
2023-05-21T03:26:52.988Z,13.50
2023-05-21T03:29:56.886Z,17.25
2023-05-21T03:33:01.250Z,16.00
2023-05-21T03:36:05.152Z,21.25
2023-05-21T03:39:12.451Z,23.00
2023-05-21T03:42:17.771Z,18.25
2023-05-21T03:45:26.392Z,17.50
2023-05-21T03:48:45.141Z,19.75
2023-05-21T03:51:52.297Z,21.00
2023-05-21T03:54:57.297Z,17.50
2023-05-21T03:58:02.406Z,21.00
2023-05-21T04:01:06.481Z,15.25
2023-05-21T04:04:10.490Z,18.75
2023-05-21T04:07:15.951Z,14.50
2023-05-21T04:10:19.644Z,11.50
2023-05-21T04:13:24.921Z,15.00
2023-05-21T04:16:28.556Z,15.67
2023-05-21T04:19:32.610Z,16.33
2023-05-21T04:22:36.855Z,15.67
2023-05-21T04:25:40.702Z,15.00
2023-05-21T04:28:46.067Z,7.67
2023-05-21T04:31:50.855Z,11.33
2023-05-21T04:34:54.739Z,11.00
2023-05-21T04:37:58.439Z,10.67
2023-05-21T04:41:03.967Z,14.67
2023-05-21T04:44:10.616Z,4.00
2023-05-21T04:47:15.081Z,10.67
2023-05-21T04:50:20.453Z,7.33
2023-05-21T04:53:26.327Z,13.00
2023-05-21T04:56:30.005Z,7.67
2023-05-21T04:59:35.544Z,13.00
2023-05-21T05:02:38.942Z,11.00
2023-05-21T05:05:42.574Z,10.00
2023-05-21T05:08:46.611Z,11.00
2023-05-21T05:11:51.784Z,11.00
2023-05-21T05:14:56.828Z,11.00
2023-05-21T05:18:00.528Z,8.00
2023-05-21T05:21:05.349Z,11.00
2023-05-21T05:24:08.837Z,11.33
2023-05-21T05:27:12.300Z,7.33
2023-05-21T05:30:17.395Z,4.00
2023-05-21T05:33:22.926Z,11.33
2023-05-21T05:36:27.261Z,9.67
2023-05-21T05:39:31.627Z,8.00
2023-05-21T05:42:35.055Z,11.00
2023-05-21T05:45:46.683Z,11.00
2023-05-21T05:48:51.643Z,8.00
2023-05-21T05:51:55.337Z,12.33
2023-05-21T05:54:58.795Z,8.67
2023-05-21T05:58:02.333Z,8.67
2023-05-21T06:01:07.496Z,9.67
2023-05-21T06:04:11.426Z,10.00
2023-05-21T06:07:15.200Z,8.67
2023-05-21T06:10:18.908Z,9.00
2023-05-21T06:13:22.551Z,9.67
2023-05-21T06:16:27.708Z,8.00
2023-05-21T06:19:31.736Z,9.00
2023-05-21T06:22:37.150Z,8.33
2023-05-21T06:25:42.721Z,8.00
2023-05-21T06:28:46.318Z,8.00
2023-05-21T06:31:51.791Z,8.00
2023-05-21T06:34:55.310Z,7.33
2023-05-21T06:37:59.347Z,7.33
2023-05-21T06:41:04.027Z,8.33
2023-05-21T06:44:25.984Z,7.00
2023-05-21T06:47:42.389Z,7.00
2023-05-21T06:50:46.080Z,7.67
2023-05-21T06:53:49.681Z,7.67
2023-05-21T06:57:02.031Z,10.00
2023-05-21T07:00:09.437Z,7.00
2023-05-21T07:03:16.411Z,7.00
2023-05-21T07:06:20.439Z,7.00
2023-05-21T07:09:24.356Z,6.00
2023-05-21T07:12:28.509Z,9.00
2023-05-21T07:15:32.081Z,7.25
2023-05-21T07:18:37.949Z,7.00
2023-05-21T07:21:41.588Z,6.50
2023-05-21T07:24:45.343Z,6.00
2023-05-21T07:27:48.944Z,7.00
2023-05-21T07:30:52.752Z,1.00
2023-05-21T07:34:05.136Z,6.00
2023-05-21T07:37:09.063Z,2.00
2023-05-21T07:40:13.731Z,2.75
2023-05-21T07:43:18.965Z,7.50
2023-05-21T07:46:22.719Z,5.50
2023-05-21T07:49:31.973Z,6.00
2023-05-21T07:52:36.406Z,6.25
2023-05-21T07:55:47.615Z,6.00
2023-05-21T07:58:54.395Z,2.75
2023-05-21T08:01:58.026Z,5.75
2023-05-21T08:05:03.838Z,4.25
2023-05-21T08:08:07.510Z,4.00
2023-05-21T08:11:14.332Z,4.20
2023-05-21T08:14:18.896Z,4.00
2023-05-21T08:17:22.536Z,3.20
2023-05-21T08:20:29.174Z,3.40
2023-05-21T08:23:33.274Z,7.25
2023-05-21T08:26:38.021Z,7.60
2023-05-21T08:29:41.712Z,6.80
2023-05-21T08:32:45.434Z,6.60
2023-05-21T08:35:51.028Z,6.40
2023-05-21T08:38:59.195Z,4.00
2023-05-21T08:42:22.740Z,4.80
2023-05-21T08:45:43.108Z,7.00
2023-05-21T08:48:48.918Z,6.20
2023-05-21T08:51:55.168Z,7.00
2023-05-21T08:54:59.842Z,6.60
2023-05-21T08:58:06.470Z,7.20
2023-05-21T09:01:12.586Z,7.60
2023-05-21T09:04:21.916Z,6.00
2023-05-21T09:07:32.500Z,3.40
2023-05-21T09:11:08.366Z,7.80
2023-05-21T09:14:20.462Z,4.40
2023-05-21T09:17:47.814Z,6.00
2023-05-21T09:21:26.489Z,6.60
2023-05-21T09:24:36.340Z,6.40
2023-05-21T09:27:41.596Z,6.40
2023-05-21T09:30:48.987Z,5.60
2023-05-21T09:33:52.814Z,2.40
2023-05-21T09:36:59.045Z,2.20
2023-05-21T09:40:11.625Z,7.20
2023-05-21T09:43:16.610Z,3.00
2023-05-21T09:46:23.053Z,2.60
2023-05-21T09:49:28.429Z,3.80
2023-05-21T09:52:33.687Z,2.60
2023-05-21T09:55:38.566Z,4.40
2023-05-21T09:58:42.253Z,3.00
2023-05-21T10:01:45.935Z,2.00
2023-05-21T10:04:52.469Z,5.60
2023-05-21T10:08:01.219Z,3.20
2023-05-21T10:11:07.786Z,1.20
2023-05-21T10:14:16.265Z,4.00
2023-05-21T10:17:20.771Z,6.00
2023-05-21T10:20:24.758Z,2.80
2023-05-21T10:23:30.416Z,3.80
2023-05-21T10:26:35.899Z,4.00
2023-05-21T10:29:41.553Z,2.40
2023-05-21T10:32:46.730Z,3.00
2023-05-21T10:35:53.339Z,5.00
2023-05-21T10:38:58.442Z,5.00
2023-05-21T10:42:13.932Z,4.60
2023-05-21T10:45:25.169Z,3.80
2023-05-21T10:48:49.288Z,4.00
2023-05-21T10:52:05.102Z,4.20
2023-05-21T10:55:23.614Z,6.80
2023-05-21T10:58:49.936Z,4.60
2023-05-21T11:01:55.426Z,4.80
2023-05-21T11:05:04.289Z,4.00
2023-05-21T11:08:22.618Z,2.00
2023-05-21T11:11:46.546Z,4.20
2023-05-21T11:14:59.418Z,5.80
2023-05-21T11:18:03.013Z,6.20
2023-05-21T11:21:07.295Z,5.00
2023-05-21T11:24:11.301Z,6.00
2023-05-21T11:27:14.882Z,4.40
2023-05-21T11:30:20.984Z,5.00
2023-05-21T11:33:24.677Z,6.60
2023-05-21T11:36:28.218Z,2.60
2023-05-21T11:39:31.750Z,6.00
2023-05-21T11:42:36.448Z,6.80
2023-05-21T11:45:46.807Z,4.60
2023-05-21T11:48:52.260Z,5.00
2023-05-21T11:51:55.851Z,5.00
2023-05-21T11:55:00.166Z,4.60
2023-05-21T11:58:04.711Z,5.20
2023-05-21T12:01:09.634Z,4.00
2023-05-21T12:04:13.642Z,4.00
2023-05-21T12:07:19.411Z,4.00
2023-05-21T12:10:24.240Z,2.00
2023-05-21T12:13:28.126Z,5.00
2023-05-21T12:16:33.080Z,4.00
2023-05-21T12:19:38.270Z,5.00
2023-05-21T12:22:44.066Z,6.00
2023-05-21T12:25:48.078Z,5.00
2023-05-21T12:28:51.686Z,3.20
2023-05-21T12:32:00.378Z,5.00
2023-05-21T12:35:04.161Z,5.00
2023-05-21T12:38:09.896Z,5.20
2023-05-21T12:41:13.465Z,2.60
2023-05-21T12:44:16.982Z,5.40
2023-05-21T12:47:25.708Z,5.00
2023-05-21T12:50:29.548Z,6.00
2023-05-21T12:53:38.287Z,4.80
2023-05-21T12:56:48.328Z,5.00
2023-05-21T12:59:53.579Z,5.20
2023-05-21T13:03:00.345Z,3.00
2023-05-21T13:06:04.095Z,5.40
2023-05-21T13:09:08.262Z,4.00
2023-05-21T13:12:12.809Z,6.40
2023-05-21T13:15:16.387Z,4.00
2023-05-21T13:18:22.152Z,1.00
2023-05-21T13:21:25.688Z,6.00
2023-05-21T13:24:29.255Z,5.60
2023-05-21T13:27:32.979Z,4.00
2023-05-21T13:30:37.218Z,4.00
2023-05-21T13:33:42.196Z,6.00
2023-05-21T13:36:45.811Z,6.60
2023-05-21T13:39:49.651Z,5.80
2023-05-21T13:42:53.582Z,5.80
2023-05-21T13:45:56.993Z,3.40
2023-05-21T13:49:03.619Z,3.60
2023-05-21T13:52:08.598Z,5.60
2023-05-21T13:55:12.189Z,5.00
2023-05-21T13:58:15.606Z,5.00
2023-05-21T14:01:19.249Z,5.00
2023-05-21T14:04:24.304Z,6.00
2023-05-21T14:07:27.893Z,4.00
2023-05-21T14:10:31.821Z,5.00
2023-05-21T14:13:35.388Z,4.00
2023-05-21T14:16:38.816Z,5.80
2023-05-21T14:19:43.885Z,4.40
2023-05-21T14:22:47.629Z,5.00
2023-05-21T14:25:51.056Z,4.00
2023-05-21T14:28:54.547Z,6.00
2023-05-21T14:31:58.589Z,5.80
2023-05-21T14:35:03.527Z,4.20
2023-05-21T14:38:07.124Z,4.00
2023-05-21T14:41:10.978Z,4.20
2023-05-21T14:44:14.432Z,5.40
2023-05-21T14:47:17.968Z,3.40
2023-05-21T14:50:22.818Z,1.20
2023-05-21T14:53:26.388Z,5.00
2023-05-21T14:56:29.999Z,5.80
2023-05-21T14:59:33.439Z,4.00
2023-05-21T15:02:37.476Z,5.00
2023-05-21T15:05:42.458Z,6.00
2023-05-21T15:08:45.867Z,5.40
2023-05-21T15:11:52.680Z,5.00
2023-05-21T15:14:56.472Z,5.20
2023-05-21T15:18:00.005Z,3.60
2023-05-21T15:21:06.302Z,5.00
2023-05-21T15:24:09.910Z,4.60
2023-05-21T15:27:13.392Z,2.80
2023-05-21T15:30:16.887Z,3.60
2023-05-21T15:33:20.355Z,3.80
2023-05-21T15:36:26.945Z,5.00
2023-05-21T15:39:31.467Z,5.00
2023-05-21T15:42:34.900Z,4.20
2023-05-21T15:45:39.290Z,2.00
2023-05-21T15:48:42.931Z,6.20
2023-05-21T15:51:48.940Z,4.60
2023-05-21T15:54:52.362Z,5.00
2023-05-21T15:57:55.967Z,5.80
2023-05-21T16:00:59.721Z,3.80
2023-05-21T16:04:04.121Z,3.80
2023-05-21T16:07:09.061Z,4.80
2023-05-21T16:10:12.722Z,3.00
2023-05-21T16:13:17.478Z,5.00
2023-05-21T16:16:23.131Z,5.00
2023-05-21T16:19:28.170Z,3.40
2023-05-21T16:22:33.091Z,5.80
2023-05-21T16:25:36.862Z,4.60
2023-05-21T16:28:40.781Z,7.00
2023-05-21T16:31:44.222Z,4.00
2023-05-21T16:34:48.156Z,4.40
2023-05-21T16:37:53.183Z,5.20
2023-05-21T16:40:57.089Z,4.00
2023-05-21T16:44:00.970Z,6.20
2023-05-21T16:47:04.543Z,4.40
2023-05-21T16:50:09.872Z,5.20
2023-05-21T16:53:14.883Z,4.00
2023-05-21T16:56:18.367Z,3.20
2023-05-21T16:59:21.970Z,6.00
2023-05-21T17:02:26.075Z,6.00
2023-05-21T17:05:30.033Z,2.20
2023-05-21T17:08:34.875Z,4.80
2023-05-21T17:11:38.571Z,6.80
2023-05-21T17:14:41.936Z,4.00
2023-05-21T17:17:45.544Z,4.00
2023-05-21T17:20:49.025Z,6.50
2023-05-21T17:23:53.889Z,4.00
2023-05-21T17:26:57.204Z,6.00
2023-05-21T17:30:00.957Z,6.00
2023-05-21T17:33:04.604Z,6.25
2023-05-21T17:36:08.337Z,5.00
2023-05-21T17:39:13.153Z,6.75
2023-05-21T17:42:20.119Z,5.00
2023-05-21T17:45:23.658Z,7.25
2023-05-21T17:48:27.037Z,6.00
2023-05-21T17:51:31.594Z,7.00
2023-05-21T17:54:36.509Z,6.00
2023-05-21T17:57:39.881Z,7.50
2023-05-21T18:00:43.303Z,6.25
2023-05-21T18:03:46.872Z,6.00
2023-05-21T18:06:51.716Z,7.00
2023-05-21T18:09:58.877Z,6.00
2023-05-21T18:13:02.359Z,6.75
2023-05-21T18:16:06.604Z,6.25
2023-05-21T18:19:10.612Z,8.25
2023-05-21T18:22:14.311Z,8.50
2023-05-21T18:25:19.256Z,8.50
2023-05-21T18:28:22.711Z,8.33
2023-05-21T18:31:26.599Z,7.00
2023-05-21T18:34:30.195Z,8.33
2023-05-21T18:37:33.818Z,7.67
2023-05-21T18:40:39.062Z,7.67
2023-05-21T18:43:42.861Z,5.00
2023-05-21T18:46:46.533Z,6.33
2023-05-21T18:49:50.106Z,7.00
2023-05-21T18:52:55.534Z,7.00
2023-05-21T18:56:00.760Z,2.67
2023-05-21T18:59:04.236Z,8.67
2023-05-21T19:02:07.973Z,6.67
2023-05-21T19:05:12.109Z,3.33
2023-05-21T19:08:17.355Z,7.67
2023-05-21T19:11:23.704Z,8.00
2023-05-21T19:14:27.315Z,5.33
2023-05-21T19:17:30.935Z,6.00
2023-05-21T19:20:37.091Z,4.67
2023-05-21T19:23:51.845Z,6.33
2023-05-21T19:26:57.911Z,5.67
2023-05-21T19:30:01.772Z,6.00
2023-05-21T19:33:06.492Z,8.33
2023-05-21T19:36:10.033Z,6.00
2023-05-21T19:39:13.862Z,6.00
2023-05-21T19:42:21.540Z,6.00
2023-05-21T19:45:25.621Z,5.00
2023-05-21T19:48:29.208Z,5.33
2023-05-21T19:51:33.104Z,5.00
2023-05-21T19:54:36.993Z,7.33
2023-05-21T19:57:41.903Z,5.00
2023-05-21T20:00:47.433Z,6.67
2023-05-21T20:03:51.192Z,6.00
2023-05-21T20:06:54.659Z,5.00
2023-05-21T20:09:58.362Z,6.00
2023-05-21T20:13:03.379Z,8.00
2023-05-21T20:16:07.760Z,4.33
2023-05-21T20:19:11.428Z,6.67
2023-05-21T20:22:15.695Z,5.00
2023-05-21T20:25:19.480Z,5.00
2023-05-21T20:28:24.467Z,7.33
2023-05-21T20:31:28.580Z,6.33
2023-05-21T20:34:32.165Z,5.67
2023-05-21T20:37:36.931Z,7.00
2023-05-21T20:40:40.505Z,7.33
2023-05-21T20:43:46.200Z,8.00
2023-05-21T20:46:50.304Z,5.33
2023-05-21T20:49:54.289Z,7.67
2023-05-21T20:52:58.147Z,7.67
2023-05-21T20:56:02.538Z,8.00
2023-05-21T20:59:09.275Z,5.00
2023-05-21T21:02:14.505Z,8.67
2023-05-21T21:05:20.146Z,8.00
2023-05-21T21:08:28.238Z,7.33
2023-05-21T21:11:32.535Z,8.00
2023-05-21T21:14:37.444Z,9.33
2023-05-21T21:17:41.348Z,11.00
2023-05-21T21:20:49.701Z,7.00
2023-05-21T21:23:53.891Z,7.33
2023-05-21T21:26:57.274Z,7.00
2023-05-21T21:30:02.217Z,9.67
2023-05-21T21:33:06.390Z,8.00
2023-05-21T21:36:12.263Z,8.33
2023-05-21T21:39:18.082Z,6.33
2023-05-21T21:42:21.759Z,7.00
2023-05-21T21:45:26.841Z,9.33
2023-05-21T21:48:30.403Z,10.00
2023-05-21T21:51:35.314Z,10.00
2023-05-21T21:54:38.918Z,8.00
2023-05-21T21:57:42.484Z,8.00
2023-05-21T22:00:47.593Z,8.00
2023-05-21T22:03:51.264Z,7.00
2023-05-21T22:06:54.965Z,11.00
2023-05-21T22:09:58.542Z,7.00
2023-05-21T22:13:02.899Z,8.67
2023-05-21T22:16:08.623Z,8.00
2023-05-21T22:19:12.996Z,8.00
2023-05-21T22:22:16.623Z,7.33
2023-05-21T22:25:20.357Z,7.67
2023-05-21T22:28:23.689Z,10.00
2023-05-21T22:31:28.780Z,7.67
2023-05-21T22:34:32.278Z,7.67
2023-05-21T22:37:37.483Z,7.33
2023-05-21T22:40:41.138Z,8.67
2023-05-21T22:43:44.782Z,7.00
2023-05-21T22:46:49.863Z,8.00
2023-05-21T22:49:53.457Z,7.00
2023-05-21T22:52:57.146Z,6.33
2023-05-21T22:56:01.251Z,7.00
2023-05-21T22:59:04.743Z,7.33
2023-05-21T23:02:09.715Z,7.33
2023-05-21T23:05:13.510Z,5.00
2023-05-21T23:08:17.213Z,5.00
2023-05-21T23:11:21.033Z,6.33
2023-05-21T23:14:24.696Z,10.67
2023-05-21T23:17:29.703Z,7.00
2023-05-21T23:20:33.858Z,7.67
2023-05-21T23:23:37.322Z,6.33
2023-05-21T23:26:41.031Z,7.00
2023-05-21T23:29:44.504Z,10.00
2023-05-21T23:32:49.583Z,8.00
2023-05-21T23:35:53.302Z,8.00
2023-05-21T23:38:56.810Z,5.33
2023-05-21T23:42:01.413Z,7.00
2023-05-21T23:45:05.669Z,7.00
2023-05-21T23:48:12.003Z,5.33
2023-05-21T23:51:15.784Z,9.67
2023-05-21T23:54:19.365Z,7.33
2023-05-21T23:57:23.525Z,9.33
